sensor_id;sensor_type;location;lat;lon;timestamp;pressure;altitude;pressure_sealevel;temperature;humidity
13015;BME280;6573;57.696;11.950;2023-05-01T00:01:02;101789.56;;;11.96;100.00
13015;BME280;6573;57.696;11.950;2023-05-01T00:03:31;101769.28;;;11.89;100.00
13015;BME280;6573;57.696;11.950;2023-05-01T00:06:02;101777.88;;;11.66;100.00
13015;BME280;6573;57.696;11.950;2023-05-01T00:08:31;101749.03;;;11.82;100.00
13015;BME280;6573;57.696;11.950;2023-05-01T00:11:05;101760.59;;;12.00;100.00
13015;BME280;6573;57.696;11.950;2023-05-01T00:13:36;101750.84;;;11.89;100.00
13015;BME280;6573;57.696;11.950;2023-05-01T00:16:07;101758.66;;;11.77;100.00
13015;BME280;6573;57.696;11.950;2023-05-01T00:18:36;101748.94;;;11.69;100.00
13015;BME280;6573;57.696;11.950;2023-05-01T00:21:04;101773.56;;;11.72;100.00
13015;BME280;6573;57.696;11.950;2023-05-01T00:23:33;101773.44;;;11.59;100.00
13015;BME280;6573;57.696;11.950;2023-05-01T00:26:05;101764.66;;;11.56;100.00
13015;BME280;6573;57.696;11.950;2023-05-01T00:28:34;101746.78;;;11.23;100.00
13015;BME280;6573;57.696;11.950;2023-05-01T00:31:02;101752.03;;;11.23;100.00
13015;BME280;6573;57.696;11.950;2023-05-01T00:33:32;101748.53;;;11.24;100.00
13015;BME280;6573;57.696;11.950;2023-05-01T00:36:00;101751.34;;;11.41;100.00
13015;BME280;6573;57.696;11.950;2023-05-01T00:38:30;101739.81;;;11.28;100.00
13015;BME280;6573;57.696;11.950;2023-05-01T00:40:58;101741.56;;;11.29;100.00
13015;BME280;6573;57.696;11.950;2023-05-01T00:43:28;101753.13;;;11.43;100.00
13015;BME280;6573;57.696;11.950;2023-05-01T00:45:56;101752.25;;;11.47;100.00
13015;BME280;6573;57.696;11.950;2023-05-01T00:48:27;101720.47;;;11.26;100.00
13015;BME280;6573;57.696;11.950;2023-05-01T00:50:59;101743.28;;;11.27;100.00
13015;BME280;6573;57.696;11.950;2023-05-01T00:53:28;101753.88;;;11.30;100.00
13015;BME280;6573;57.696;11.950;2023-05-01T00:55:57;101735.97;;;10.99;100.00
13015;BME280;6573;57.696;11.950;2023-05-01T00:58:26;101706.91;;;10.85;100.00
13015;BME280;6573;57.696;11.950;2023-05-01T01:00:55;101738.69;;;11.05;100.00
13015;BME280;6573;57.696;11.950;2023-05-01T01:03:24;101736.13;;;11.11;100.00
13015;BME280;6573;57.696;11.950;2023-05-01T01:05:56;101734.31;;;11.07;100.00
13015;BME280;6573;57.696;11.950;2023-05-01T01:08:34;101736.25;;;11.23;100.00
13015;BME280;6573;57.696;11.950;2023-05-01T01:11:13;101734.47;;;11.22;100.00
13015;BME280;6573;57.696;11.950;2023-05-01T01:13:54;101727.38;;;11.15;100.00
13015;BME280;6573;57.696;11.950;2023-05-01T01:16:29;101729.06;;;11.07;100.00
13015;BME280;6573;57.696;11.950;2023-05-01T01:19:05;101730.75;;;11.02;100.00
13015;BME280;6573;57.696;11.950;2023-05-01T01:21:44;101726.38;;;11.01;100.00
13015;BME280;6573;57.696;11.950;2023-05-01T01:24:38;101719.41;;;11.09;100.00
13015;BME280;6573;57.696;11.950;2023-05-01T01:27:33;101709.81;;;11.14;100.00
13015;BME280;6573;57.696;11.950;2023-05-01T01:30:34;101705.31;;;11.01;100.00
13015;BME280;6573;57.696;11.950;2023-05-01T01:33:45;101699.19;;;11.05;100.00
13015;BME280;6573;57.696;11.950;2023-05-01T01:36:19;101694.78;;;11.02;100.00
13015;BME280;6573;57.696;11.950;2023-05-01T01:38:55;101697.50;;;11.10;100.00
13015;BME280;6573;57.696;11.950;2023-05-01T01:41:30;101699.28;;;11.11;100.00
13015;BME280;6573;57.696;11.950;2023-05-01T01:44:03;101697.47;;;11.07;100.00
13015;BME280;6573;57.696;11.950;2023-05-01T01:46:38;101692.28;;;11.16;100.00
13015;BME280;6573;57.696;11.950;2023-05-01T01:49:14;101697.63;;;11.25;100.00
13015;BME280;6573;57.696;11.950;2023-05-01T01:51:47;101687.16;;;11.34;100.00
13015;BME280;6573;57.696;11.950;2023-05-01T01:54:22;101686.28;;;11.31;100.00
13015;BME280;6573;57.696;11.950;2023-05-01T01:56:54;101681.84;;;11.31;100.00
13015;BME280;6573;57.696;11.950;2023-05-01T01:59:25;101678.34;;;11.26;100.00
13015;BME280;6573;57.696;11.950;2023-05-01T02:01:59;101667.78;;;11.23;100.00
13015;BME280;6573;57.696;11.950;2023-05-01T02:04:31;101662.53;;;11.29;100.00
13015;BME280;6573;57.696;11.950;2023-05-01T02:07:04;101665.09;;;11.19;100.00
13015;BME280;6573;57.696;11.950;2023-05-01T02:09:34;101661.66;;;11.32;100.00
13015;BME280;6573;57.696;11.950;2023-05-01T02:12:04;101660.75;;;11.25;100.00
13015;BME280;6573;57.696;11.950;2023-05-01T02:14:34;101636.94;;;11.09;100.00
13015;BME280;6573;57.696;11.950;2023-05-01T02:17:04;101657.16;;;11.17;100.00
13015;BME280;6573;57.696;11.950;2023-05-01T02:19:36;101652.00;;;11.29;100.00
13015;BME280;6573;57.696;11.950;2023-05-01T02:22:06;101643.25;;;11.33;100.00
13015;BME280;6573;57.696;11.950;2023-05-01T02:24:35;101643.19;;;11.27;100.00
13015;BME280;6573;57.696;11.950;2023-05-01T02:27:09;101646.63;;;11.17;100.00
13015;BME280;6573;57.696;11.950;2023-05-01T02:29:38;101612.28;;;11.00;100.00
13015;BME280;6573;57.696;11.950;2023-05-01T02:32:06;101622.09;;;11.21;100.00
13015;BME280;6573;57.696;11.950;2023-05-01T02:34:36;101629.16;;;11.31;100.00
13015;BME280;6573;57.696;11.950;2023-05-01T02:37:06;101637.22;;;11.48;100.00
13015;BME280;6573;57.696;11.950;2023-05-01T02:39:35;101630.09;;;11.36;100.00
13015;BME280;6573;57.696;11.950;2023-05-01T02:42:05;101627.47;;;11.33;100.00
13015;BME280;6573;57.696;11.950;2023-05-01T02:44:39;101616.00;;;11.28;100.00
13015;BME280;6573;57.696;11.950;2023-05-01T02:47:13;101623.03;;;11.34;100.00
13015;BME280;6573;57.696;11.950;2023-05-01T02:49:44;101614.25;;;11.32;100.00
13015;BME280;6573;57.696;11.950;2023-05-01T02:52:17;101616.91;;;11.33;100.00
13015;BME280;6573;57.696;11.950;2023-05-01T02:54:47;101602.75;;;11.16;100.00
13015;BME280;6573;57.696;11.950;2023-05-01T02:57:16;101604.47;;;11.14;100.00
13015;BME280;6573;57.696;11.950;2023-05-01T02:59:46;101605.44;;;11.24;100.00
13015;BME280;6573;57.696;11.950;2023-05-01T03:02:14;101592.22;;;11.19;100.00
13015;BME280;6573;57.696;11.950;2023-05-01T03:04:49;101594.06;;;11.32;100.00
13015;BME280;6573;57.696;11.950;2023-05-01T03:07:17;101592.28;;;11.31;100.00
13015;BME280;6573;57.696;11.950;2023-05-01T03:09:46;101588.84;;;11.41;100.00
13015;BME280;6573;57.696;11.950;2023-05-01T03:12:14;101592.31;;;11.34;100.00
13015;BME280;6573;57.696;11.950;2023-05-01T03:14:42;101591.38;;;11.19;100.00
13015;BME280;6573;57.696;11.950;2023-05-01T03:17:11;101571.13;;;11.13;100.00
13015;BME280;6573;57.696;11.950;2023-05-01T03:19:39;101565.88;;;11.18;100.00
13015;BME280;6573;57.696;11.950;2023-05-01T03:22:09;101560.66;;;11.25;100.00
13015;BME280;6573;57.696;11.950;2023-05-01T03:24:37;101564.13;;;11.18;100.00
13015;BME280;6573;57.696;11.950;2023-05-01T03:27:06;101562.38;;;11.20;100.00
13015;BME280;6573;57.696;11.950;2023-05-01T03:29:34;101555.28;;;11.12;100.00
13015;BME280;6573;57.696;11.950;2023-05-01T03:32:04;101544.72;;;11.01;100.00
13015;BME280;6573;57.696;11.950;2023-05-01T03:34:32;101551.84;;;11.20;100.00
13015;BME280;6573;57.696;11.950;2023-05-01T03:37:01;101547.50;;;11.25;100.00
13015;BME280;6573;57.696;11.950;2023-05-01T03:39:30;101535.94;;;11.00;100.00
13015;BME280;6573;57.696;11.950;2023-05-01T03:41:58;101540.41;;;11.14;100.00
13015;BME280;6573;57.696;11.950;2023-05-01T03:44:27;101523.72;;;11.13;100.00
13015;BME280;6573;57.696;11.950;2023-05-01T03:46:58;101535.81;;;10.87;100.00
13015;BME280;6573;57.696;11.950;2023-05-01T03:49:26;101525.38;;;10.96;100.00
13015;BME280;6573;57.696;11.950;2023-05-01T03:51:54;101528.88;;;10.98;100.00
13015;BME280;6573;57.696;11.950;2023-05-01T03:54:23;101528.84;;;10.95;100.00
13015;BME280;6573;57.696;11.950;2023-05-01T03:56:53;101522.69;;;10.88;100.00
13015;BME280;6573;57.696;11.950;2023-05-01T03:59:21;101509.47;;;10.81;100.00
13015;BME280;6573;57.696;11.950;2023-05-01T04:01:49;101528.81;;;10.86;100.00
13015;BME280;6573;57.696;11.950;2023-05-01T04:04:17;101526.13;;;10.80;100.00
13015;BME280;6573;57.696;11.950;2023-05-01T04:06:46;101514.03;;;11.06;100.00
13015;BME280;6573;57.696;11.950;2023-05-01T04:09:15;101499.09;;;11.05;100.00
13015;BME280;6573;57.696;11.950;2023-05-01T04:11:43;101470.94;;;10.95;100.00
13015;BME280;6573;57.696;11.950;2023-05-01T04:14:14;101500.84;;;11.09;100.00
13015;BME280;6573;57.696;11.950;2023-05-01T04:16:42;101504.41;;;11.14;100.00
13015;BME280;6573;57.696;11.950;2023-05-01T04:19:10;101479.78;;;11.03;100.00
13015;BME280;6573;57.696;11.950;2023-05-01T04:21:38;101500.91;;;11.15;100.00
13015;BME280;6573;57.696;11.950;2023-05-01T04:24:07;101486.88;;;11.16;100.00
13015;BME280;6573;57.696;11.950;2023-05-01T04:26:35;101490.47;;;11.30;100.00
13015;BME280;6573;57.696;11.950;2023-05-01T04:29:05;101490.41;;;11.24;100.00
13015;BME280;6573;57.696;11.950;2023-05-01T04:31:34;101487.78;;;11.24;100.00
13015;BME280;6573;57.696;11.950;2023-05-01T04:34:03;101492.16;;;11.22;100.00
13015;BME280;6573;57.696;11.950;2023-05-01T04:36:31;101479.88;;;11.24;100.00
13015;BME280;6573;57.696;11.950;2023-05-01T04:39:00;101478.13;;;11.23;100.00
13015;BME280;6573;57.696;11.950;2023-05-01T04:41:28;101472.88;;;11.23;100.00
13015;BME280;6573;57.696;11.950;2023-05-01T04:43:56;101476.31;;;11.10;100.00
13015;BME280;6573;57.696;11.950;2023-05-01T04:46:24;101474.56;;;11.12;100.00
13015;BME280;6573;57.696;11.950;2023-05-01T04:48:54;101457.91;;;11.13;100.00
13015;BME280;6573;57.696;11.950;2023-05-01T04:51:22;101450.03;;;11.16;100.00
13015;BME280;6573;57.696;11.950;2023-05-01T04:53:51;101451.81;;;11.23;100.00
13015;BME280;6573;57.696;11.950;2023-05-01T04:56:19;101444.78;;;11.25;100.00
13015;BME280;6573;57.696;11.950;2023-05-01T04:58:49;101447.50;;;11.49;100.00
13015;BME280;6573;57.696;11.950;2023-05-01T05:01:17;101442.19;;;11.39;100.00
13015;BME280;6573;57.696;11.950;2023-05-01T05:03:46;101439.56;;;11.40;100.00
13015;BME280;6573;57.696;11.950;2023-05-01T05:06:17;101428.97;;;11.25;100.00
13015;BME280;6573;57.696;11.950;2023-05-01T05:08:45;101436.06;;;11.41;100.00
13015;BME280;6573;57.696;11.950;2023-05-01T05:11:19;101435.19;;;11.42;100.00
13015;BME280;6573;57.696;11.950;2023-05-01T05:13:47;101432.53;;;11.36;100.00
13015;BME280;6573;57.696;11.950;2023-05-01T05:16:16;101431.63;;;11.28;100.00
13015;BME280;6573;57.696;11.950;2023-05-01T05:18:44;101421.13;;;11.36;100.00
13015;BME280;6573;57.696;11.950;2023-05-01T05:21:13;101418.53;;;11.43;100.00
13015;BME280;6573;57.696;11.950;2023-05-01T05:23:45;101422.00;;;11.33;100.00
13015;BME280;6573;57.696;11.950;2023-05-01T05:26:14;101415.00;;;11.38;100.00
13015;BME280;6573;57.696;11.950;2023-05-01T05:28:42;101421.97;;;11.30;100.00
13015;BME280;6573;57.696;11.950;2023-05-01T05:31:10;101418.50;;;11.37;100.00
13015;BME280;6573;57.696;11.950;2023-05-01T05:33:39;101418.53;;;11.49;100.00
13015;BME280;6573;57.696;11.950;2023-05-01T05:36:07;101414.16;;;11.62;100.00
13015;BME280;6573;57.696;11.950;2023-05-01T05:38:35;101407.97;;;11.46;100.00
13015;BME280;6573;57.696;11.950;2023-05-01T05:41:05;101411.59;;;11.73;100.00
13015;BME280;6573;57.696;11.950;2023-05-01T05:43:34;101402.78;;;11.67;100.00
13015;BME280;6573;57.696;11.950;2023-05-01T05:46:03;101399.25;;;11.62;100.00
13015;BME280;6573;57.696;11.950;2023-05-01T05:48:31;101408.03;;;11.67;100.00
13015;BME280;6573;57.696;11.950;2023-05-01T05:51:00;101393.09;;;11.57;100.00
13015;BME280;6573;57.696;11.950;2023-05-01T05:53:28;101392.28;;;11.71;100.00
13015;BME280;6573;57.696;11.950;2023-05-01T05:55:56;101402.81;;;11.80;100.00
13015;BME280;6573;57.696;11.950;2023-05-01T05:58:26;101388.72;;;11.68;100.00
13015;BME280;6573;57.696;11.950;2023-05-01T06:00:54;101371.13;;;11.61;100.00
13015;BME280;6573;57.696;11.950;2023-05-01T06:03:23;101370.31;;;11.78;100.00
13015;BME280;6573;57.696;11.950;2023-05-01T06:05:53;101385.25;;;12.06;100.00
13015;BME280;6573;57.696;11.950;2023-05-01T06:08:22;101374.72;;;12.09;100.00
13015;BME280;6573;57.696;11.950;2023-05-01T06:10:52;101376.50;;;12.13;100.00
13015;BME280;6573;57.696;11.950;2023-05-01T06:13:21;101377.34;;;12.01;100.00
13015;BME280;6573;57.696;11.950;2023-05-01T06:15:50;101365.03;;;12.03;100.00
13015;BME280;6573;57.696;11.950;2023-05-01T06:18:19;101376.47;;;12.19;100.00
13015;BME280;6573;57.696;11.950;2023-05-01T06:20:47;101357.13;;;12.26;100.00
13015;BME280;6573;57.696;11.950;2023-05-01T06:23:15;101348.34;;;12.18;100.00
13015;BME280;6573;57.696;11.950;2023-05-01T06:25:44;101358.88;;;12.21;100.00
13015;BME280;6573;57.696;11.950;2023-05-01T06:28:14;101357.13;;;12.14;100.00
13015;BME280;6573;57.696;11.950;2023-05-01T06:30:42;101343.06;;;12.06;100.00
13015;BME280;6573;57.696;11.950;2023-05-01T06:33:12;101350.06;;;12.31;100.00
13015;BME280;6573;57.696;11.950;2023-05-01T06:35:40;101336.00;;;12.32;100.00
13015;BME280;6573;57.696;11.950;2023-05-01T06:38:08;101327.19;;;12.36;100.00
13015;BME280;6573;57.696;11.950;2023-05-01T06:40:39;101297.28;;;12.43;100.00
13015;BME280;6573;57.696;11.950;2023-05-01T06:43:10;101310.44;;;12.61;100.00
13015;BME280;6573;57.696;11.950;2023-05-01T06:45:39;101317.44;;;12.77;100.00
13015;BME280;6573;57.696;11.950;2023-05-01T06:48:09;101317.41;;;12.82;100.00
13015;BME280;6573;57.696;11.950;2023-05-01T06:50:39;101313.84;;;12.89;100.00
13015;BME280;6573;57.696;11.950;2023-05-01T06:53:07;101288.34;;;12.86;100.00
13015;BME280;6573;57.696;11.950;2023-05-01T06:55:36;101310.31;;;12.94;100.00
13015;BME280;6573;57.696;11.950;2023-05-01T06:58:04;101309.34;;;13.17;100.00
13015;BME280;6573;57.696;11.950;2023-05-01T07:00:49;101309.41;;;12.95;100.00
13015;BME280;6573;57.696;11.950;2023-05-01T07:03:17;101299.69;;;13.08;100.00
13015;BME280;6573;57.696;11.950;2023-05-01T07:05:47;101296.94;;;13.28;100.00
13015;BME280;6573;57.696;11.950;2023-05-01T07:08:17;101297.00;;;13.16;100.00
13015;BME280;6573;57.696;11.950;2023-05-01T07:10:45;101285.47;;;13.32;100.00
13015;BME280;6573;57.696;11.950;2023-05-01T07:13:13;101286.28;;;13.40;100.00
13015;BME280;6573;57.696;11.950;2023-05-01T07:15:41;101289.75;;;13.51;100.00
13015;BME280;6573;57.696;11.950;2023-05-01T07:18:11;101288.88;;;13.52;100.00
13015;BME280;6573;57.696;11.950;2023-05-01T07:20:39;101284.47;;;13.51;100.00
13015;BME280;6573;57.696;11.950;2023-05-01T07:23:09;101282.69;;;13.50;100.00
13015;BME280;6573;57.696;11.950;2023-05-01T07:25:37;101273.94;;;13.40;100.00
13015;BME280;6573;57.696;11.950;2023-05-01T07:28:07;101272.09;;;13.56;100.00
13015;BME280;6573;57.696;11.950;2023-05-01T07:30:35;101256.44;;;13.26;100.00
13015;BME280;6573;57.696;11.950;2023-05-01T07:33:03;101273.09;;;13.38;100.00
13015;BME280;6573;57.696;11.950;2023-05-01T07:35:32;101270.47;;;13.37;100.00
13015;BME280;6573;57.696;11.950;2023-05-01T07:38:01;101260.75;;;13.42;100.00
13015;BME280;6573;57.696;11.950;2023-05-01T07:40:31;101268.59;;;13.51;100.00
13015;BME280;6573;57.696;11.950;2023-05-01T07:43:00;101250.03;;;13.58;100.00
13015;BME280;6573;57.696;11.950;2023-05-01T07:45:28;101261.59;;;13.44;100.00
13015;BME280;6573;57.696;11.950;2023-05-01T07:47:56;101243.88;;;13.55;100.00
13015;BME280;6573;57.696;11.950;2023-05-01T07:50:29;101236.97;;;13.42;100.00
13015;BME280;6573;57.696;11.950;2023-05-01T07:52:57;101249.25;;;13.46;100.00
13015;BME280;6573;57.696;11.950;2023-05-01T07:55:27;101240.50;;;13.38;100.00
13015;BME280;6573;57.696;11.950;2023-05-01T07:57:56;101245.03;;;13.21;100.00
13015;BME280;6573;57.696;11.950;2023-05-01T08:00:25;101242.41;;;13.18;100.00
13015;BME280;6573;57.696;11.950;2023-05-01T08:02:53;101215.06;;;13.26;100.00
13015;BME280;6573;57.696;11.950;2023-05-01T08:05:28;101218.50;;;13.33;100.00
13015;BME280;6573;57.696;11.950;2023-05-01T08:07:57;101231.69;;;13.39;100.00
13015;BME280;6573;57.696;11.950;2023-05-01T08:10:25;101209.59;;;13.47;100.00
13015;BME280;6573;57.696;11.950;2023-05-01T08:12:55;101227.31;;;13.33;100.00
13015;BME280;6573;57.696;11.950;2023-05-01T08:15:24;101217.66;;;13.28;100.00
13015;BME280;6573;57.696;11.950;2023-05-01T08:17:54;101219.34;;;13.38;100.00
13015;BME280;6573;57.696;11.950;2023-05-01T08:20:22;101212.25;;;13.46;100.00
13015;BME280;6573;57.696;11.950;2023-05-01T08:22:51;101212.28;;;13.43;100.00
13015;BME280;6573;57.696;11.950;2023-05-01T08:25:19;101213.97;;;13.50;100.00
13015;BME280;6573;57.696;11.950;2023-05-01T08:27:48;101215.75;;;13.48;100.00
13015;BME280;6573;57.696;11.950;2023-05-01T08:30:17;101213.94;;;13.56;100.00
13015;BME280;6573;57.696;11.950;2023-05-01T08:32:46;101203.25;;;13.68;100.00
13015;BME280;6573;57.696;11.950;2023-05-01T08:35:15;101187.53;;;13.54;100.00
13015;BME280;6573;57.696;11.950;2023-05-01T08:37:43;101201.41;;;13.76;100.00
13015;BME280;6573;57.696;11.950;2023-05-01T08:40:14;101203.13;;;13.77;100.00
13015;BME280;6573;57.696;11.950;2023-05-01T08:42:42;101201.31;;;13.85;100.00
13015;BME280;6573;57.696;11.950;2023-05-01T08:45:11;101211.88;;;13.85;100.00
13015;BME280;6573;57.696;11.950;2023-05-01T08:47:44;101203.22;;;13.71;100.00
13015;BME280;6573;57.696;11.950;2023-05-01T08:50:15;101200.38;;;13.91;100.00
13015;BME280;6573;57.696;11.950;2023-05-01T08:52:50;101189.09;;;13.72;100.00
13015;BME280;6573;57.696;11.950;2023-05-01T08:55:20;101194.34;;;13.75;100.00
13015;BME280;6573;57.696;11.950;2023-05-01T08:57:49;101192.53;;;13.83;100.00
13015;BME280;6573;57.696;11.950;2023-05-01T09:00:19;101187.28;;;13.77;100.00
13015;BME280;6573;57.696;11.950;2023-05-01T09:02:50;101185.41;;;13.88;100.00
13015;BME280;6573;57.696;11.950;2023-05-01T09:05:19;101170.59;;;13.74;100.00
13015;BME280;6573;57.696;11.950;2023-05-01T09:07:48;101187.34;;;13.71;100.00
13015;BME280;6573;57.696;11.950;2023-05-01T09:10:17;101174.88;;;13.85;100.00
13015;BME280;6573;57.696;11.950;2023-05-01T09:12:48;101157.41;;;13.69;100.00
13015;BME280;6573;57.696;11.950;2023-05-01T09:15:23;101166.25;;;13.67;100.00
13015;BME280;6573;57.696;11.950;2023-05-01T09:17:58;101171.50;;;13.68;100.00
13015;BME280;6573;57.696;11.950;2023-05-01T09:20:30;101180.22;;;13.79;100.00
13015;BME280;6573;57.696;11.950;2023-05-01T09:22:58;101172.28;;;13.78;100.00
13015;BME280;6573;57.696;11.950;2023-05-01T09:25:29;101164.44;;;13.72;100.00
13015;BME280;6573;57.696;11.950;2023-05-01T09:27:58;101169.56;;;13.85;100.00
13015;BME280;6573;57.696;11.950;2023-05-01T09:30:30;101179.38;;;13.76;100.00
13015;BME280;6573;57.696;11.950;2023-05-01T09:33:09;101157.47;;;13.63;100.00
13015;BME280;6573;57.696;11.950;2023-05-01T09:35:49;101138.34;;;13.37;100.00
13015;BME280;6573;57.696;11.950;2023-05-01T09:38:19;101169.81;;;13.64;100.00
13015;BME280;6573;57.696;11.950;2023-05-01T09:40:48;101160.28;;;13.46;100.00
13015;BME280;6573;57.696;11.950;2023-05-01T09:43:24;101159.25;;;13.61;100.00
13015;BME280;6573;57.696;11.950;2023-05-01T09:46:03;101138.09;;;13.61;100.00
13015;BME280;6573;57.696;11.950;2023-05-01T09:48:37;101159.28;;;13.58;100.00
13015;BME280;6573;57.696;11.950;2023-05-01T09:51:24;101141.69;;;13.54;100.00
13015;BME280;6573;57.696;11.950;2023-05-01T09:53:54;101161.81;;;13.67;100.00
13015;BME280;6573;57.696;11.950;2023-05-01T09:56:27;101146.69;;;13.84;100.00
13015;BME280;6573;57.696;11.950;2023-05-01T09:58:57;101135.34;;;13.72;100.00
13015;BME280;6573;57.696;11.950;2023-05-01T10:01:38;101121.53;;;13.44;100.00
13015;BME280;6573;57.696;11.950;2023-05-01T10:04:08;101138.91;;;13.69;100.00
13015;BME280;6573;57.696;11.950;2023-05-01T10:06:37;101139.59;;;13.86;100.00
13015;BME280;6573;57.696;11.950;2023-05-01T10:09:07;101131.81;;;13.70;100.00
13015;BME280;6573;57.696;11.950;2023-05-01T10:11:47;101130.84;;;13.81;100.00
13015;BME280;6573;57.696;11.950;2023-05-01T10:14:16;101118.59;;;13.74;100.00
13015;BME280;6573;57.696;11.950;2023-05-01T10:16:44;101119.28;;;13.88;100.00
13015;BME280;6573;57.696;11.950;2023-05-01T10:19:16;101102.53;;;13.89;100.00
13015;BME280;6573;57.696;11.950;2023-05-01T10:21:44;101109.34;;;14.08;100.00
13015;BME280;6573;57.696;11.950;2023-05-01T10:24:12;101105.91;;;14.03;100.00
13015;BME280;6573;57.696;11.950;2023-05-01T10:26:43;101079.91;;;13.64;100.00
13015;BME280;6573;57.696;11.950;2023-05-01T10:29:11;101099.03;;;13.87;100.00
13015;BME280;6573;57.696;11.950;2023-05-01T10:31:40;101098.03;;;13.99;100.00
13015;BME280;6573;57.696;11.950;2023-05-01T10:34:09;101089.94;;;14.09;100.00
13015;BME280;6573;57.696;11.950;2023-05-01T10:36:46;101091.53;;;14.22;100.00
13015;BME280;6573;57.696;11.950;2023-05-01T10:39:29;101088.75;;;14.35;100.00
13015;BME280;6573;57.696;11.950;2023-05-01T10:42:02;101095.53;;;14.54;100.00
13015;BME280;6573;57.696;11.950;2023-05-01T10:44:35;101077.88;;;14.54;100.00
13015;BME280;6573;57.696;11.950;2023-05-01T10:50:10;101062.72;;;14.64;100.00
13015;BME280;6573;57.696;11.950;2023-05-01T10:53:17;101066.41;;;14.54;100.00
13015;BME280;6573;57.696;11.950;2023-05-01T10:55:47;101059.22;;;14.62;100.00
13015;BME280;6573;57.696;11.950;2023-05-01T11:01:30;101056.13;;;14.90;100.00
13015;BME280;6573;57.696;11.950;2023-05-01T11:04:00;101058.06;;;14.81;100.00
13015;BME280;6573;57.696;11.950;2023-05-01T11:06:30;101047.38;;;14.85;100.00
13015;BME280;6573;57.696;11.950;2023-05-01T11:09:01;101030.56;;;14.88;100.00
13015;BME280;6573;57.696;11.950;2023-05-01T11:11:48;101044.25;;;15.11;100.00
13015;BME280;6573;57.696;11.950;2023-05-01T11:14:16;101039.84;;;15.12;100.00
13015;BME280;6573;57.696;11.950;2023-05-01T11:16:45;101033.75;;;15.08;100.00
13015;BME280;6573;57.696;11.950;2023-05-01T11:19:47;101024.22;;;14.97;100.00
13015;BME280;6573;57.696;11.950;2023-05-01T11:22:16;101035.47;;;15.09;100.00
13015;BME280;6573;57.696;11.950;2023-05-01T11:24:46;101017.91;;;15.05;100.00
13015;BME280;6573;57.696;11.950;2023-05-01T11:27:15;101010.84;;;15.04;100.00
13015;BME280;6573;57.696;11.950;2023-05-01T11:29:44;101025.84;;;15.05;100.00
13015;BME280;6573;57.696;11.950;2023-05-01T11:32:18;101021.94;;;15.24;100.00
13015;BME280;6573;57.696;11.950;2023-05-01T11:34:48;101030.25;;;15.05;100.00
13015;BME280;6573;57.696;11.950;2023-05-01T11:37:17;101034.34;;;15.22;100.00
13015;BME280;6573;57.696;11.950;2023-05-01T11:39:50;101025.78;;;15.08;100.00
13015;BME280;6573;57.696;11.950;2023-05-01T11:42:20;101014.28;;;15.09;100.00
13015;BME280;6573;57.696;11.950;2023-05-01T11:45:05;101012.69;;;14.99;100.00
13015;BME280;6573;57.696;11.950;2023-05-01T11:47:36;100991.97;;;14.72;100.00
13015;BME280;6573;57.696;11.950;2023-05-01T11:50:06;101015.69;;;14.79;100.00
13015;BME280;6573;57.696;11.950;2023-05-01T11:52:42;101016.13;;;15.04;100.00
13015;BME280;6573;57.696;11.950;2023-05-01T11:55:13;101014.22;;;15.12;100.00
13015;BME280;6573;57.696;11.950;2023-05-01T11:57:46;101007.72;;;14.81;100.00
13015;BME280;6573;57.696;11.950;2023-05-01T12:00:25;101000.66;;;14.80;100.00
13015;BME280;6573;57.696;11.950;2023-05-01T12:02:54;100995.88;;;15.02;100.00
13015;BME280;6573;57.696;11.950;2023-05-01T12:05:24;100998.38;;;15.09;100.00
13015;BME280;6573;57.696;11.950;2023-05-01T12:08:10;100986.47;;;14.84;100.00
13015;BME280;6573;57.696;11.950;2023-05-01T12:10:41;100983.19;;;14.70;100.00
13015;BME280;6573;57.696;11.950;2023-05-01T12:13:12;100990.25;;;14.71;100.00
13015;BME280;6573;57.696;11.950;2023-05-01T12:15:42;100977.69;;;14.82;100.00
13015;BME280;6573;57.696;11.950;2023-05-01T12:18:11;100974.41;;;14.68;100.00
13015;BME280;6573;57.696;11.950;2023-05-01T12:20:41;100964.78;;;14.62;100.00
13015;BME280;6573;57.696;11.950;2023-05-01T12:23:12;100975.88;;;14.84;100.00
13015;BME280;6573;57.696;11.950;2023-05-01T12:25:44;100977.06;;;14.68;100.00
13015;BME280;6573;57.696;11.950;2023-05-01T12:28:14;100967.25;;;14.73;100.00
13015;BME280;6573;57.696;11.950;2023-05-01T12:30:45;100971.84;;;14.63;100.00
13015;BME280;6573;57.696;11.950;2023-05-01T12:33:14;100965.41;;;14.78;100.00
13015;BME280;6573;57.696;11.950;2023-05-01T12:35:45;100948.19;;;14.53;100.00
13015;BME280;6573;57.696;11.950;2023-05-01T12:38:15;100941.03;;;14.58;100.00
13015;BME280;6573;57.696;11.950;2023-05-01T12:40:54;100949.53;;;14.76;100.00
13015;BME280;6573;57.696;11.950;2023-05-01T12:43:29;100938.13;;;14.71;100.00
13015;BME280;6573;57.696;11.950;2023-05-01T12:46:02;100932.03;;;14.68;100.00
13015;BME280;6573;57.696;11.950;2023-05-01T12:48:40;100919.59;;;14.73;100.00
13015;BME280;6573;57.696;11.950;2023-05-01T12:51:16;100944.09;;;14.84;100.00
13015;BME280;6573;57.696;11.950;2023-05-01T12:53:46;100923.81;;;14.83;100.00
13015;BME280;6573;57.696;11.950;2023-05-01T12:56:23;100907.00;;;14.85;100.00
13015;BME280;6573;57.696;11.950;2023-05-01T12:58:53;100925.44;;;14.90;100.00
13015;BME280;6573;57.696;11.950;2023-05-01T13:01:24;100921.28;;;14.77;100.00
13015;BME280;6573;57.696;11.950;2023-05-01T13:03:53;100894.91;;;14.71;100.00
13015;BME280;6573;57.696;11.950;2023-05-01T13:06:30;100904.91;;;15.01;100.00